sensor_id;sensor_type;location;lat;lon;timestamp;pressure;altitude;pressure_sealevel;temperature
75428;BMP280;64008;55.612;37.698;2023-05-18T00:00:35;100185.63;;;24.59
75428;BMP280;64008;55.612;37.698;2023-05-18T00:03:01;100193.13;;;24.62
75428;BMP280;64008;55.612;37.698;2023-05-18T00:05:27;100196.75;;;24.66
75428;BMP280;64008;55.612;37.698;2023-05-18T00:07:59;100194.88;;;24.75
75428;BMP280;64008;55.612;37.698;2023-05-18T00:10:24;100198.81;;;24.61
75428;BMP280;64008;55.612;37.698;2023-05-18T00:12:50;100200.69;;;24.60
75428;BMP280;64008;55.612;37.698;2023-05-18T00:15:15;100201.22;;;24.88
75428;BMP280;64008;55.612;37.698;2023-05-18T00:17:41;100203.72;;;24.59
75428;BMP280;64008;55.612;37.698;2023-05-18T00:20:07;100200.66;;;24.43
75428;BMP280;64008;55.612;37.698;2023-05-18T00:22:34;100202.41;;;24.30
75428;BMP280;64008;55.612;37.698;2023-05-18T00:24:59;100203.97;;;24.31
75428;BMP280;64008;55.612;37.698;2023-05-18T00:27:25;100211.00;;;24.41
75428;BMP280;64008;55.612;37.698;2023-05-18T00:29:51;100199.66;;;24.13
75428;BMP280;64008;55.612;37.698;2023-05-18T00:32:16;100206.44;;;24.10
75428;BMP280;64008;55.612;37.698;2023-05-18T00:34:42;100205.44;;;23.97
75428;BMP280;64008;55.612;37.698;2023-05-18T00:37:07;100197.03;;;23.90
75428;BMP280;64008;55.612;37.698;2023-05-18T00:39:33;100201.50;;;24.03
75428;BMP280;64008;55.612;37.698;2023-05-18T00:41:58;100205.28;;;23.94
75428;BMP280;64008;55.612;37.698;2023-05-18T00:44:24;100197.16;;;23.85
75428;BMP280;64008;55.612;37.698;2023-05-18T00:46:49;100201.59;;;23.90
75428;BMP280;64008;55.612;37.698;2023-05-18T00:49:15;100198.41;;;23.88
75428;BMP280;64008;55.612;37.698;2023-05-18T00:51:40;100206.66;;;23.82
75428;BMP280;64008;55.612;37.698;2023-05-18T00:54:06;100201.09;;;23.88
75428;BMP280;64008;55.612;37.698;2023-05-18T00:56:32;100202.00;;;23.74
75428;BMP280;64008;55.612;37.698;2023-05-18T00:59:01;100202.13;;;23.69
75428;BMP280;64008;55.612;37.698;2023-05-18T01:01:32;100210.38;;;23.73
75428;BMP280;64008;55.612;37.698;2023-05-18T01:04:02;100194.47;;;23.62
75428;BMP280;64008;55.612;37.698;2023-05-18T01:06:31;100206.41;;;23.70
75428;BMP280;64008;55.612;37.698;2023-05-18T01:09:02;100198.19;;;23.75
75428;BMP280;64008;55.612;37.698;2023-05-18T01:14:26;100205.00;;;23.73
75428;BMP280;64008;55.612;37.698;2023-05-18T01:17:07;100207.28;;;23.88
75428;BMP280;64008;55.612;37.698;2023-05-18T01:19:59;100208.75;;;23.63
75428;BMP280;64008;55.612;37.698;2023-05-18T01:28:23;100202.63;;;23.71
75428;BMP280;64008;55.612;37.698;2023-05-18T01:30:51;100205.59;;;23.61
75428;BMP280;64008;55.612;37.698;2023-05-18T01:33:17;100207.97;;;23.62
75428;BMP280;64008;55.612;37.698;2023-05-18T01:35:43;100208.94;;;23.67
75428;BMP280;64008;55.612;37.698;2023-05-18T01:38:20;100210.88;;;23.75
75428;BMP280;64008;55.612;37.698;2023-05-18T01:43:15;100202.44;;;23.68
75428;BMP280;64008;55.612;37.698;2023-05-18T01:45:45;100209.84;;;23.62
75428;BMP280;64008;55.612;37.698;2023-05-18T01:48:15;100210.84;;;23.44
75428;BMP280;64008;55.612;37.698;2023-05-18T01:50:46;100213.03;;;23.41
75428;BMP280;64008;55.612;37.698;2023-05-18T01:53:19;100207.47;;;23.38
75428;BMP280;64008;55.612;37.698;2023-05-18T01:55:47;100212.88;;;23.38
75428;BMP280;64008;55.612;37.698;2023-05-18T01:58:15;100216.03;;;23.40
75428;BMP280;64008;55.612;37.698;2023-05-18T02:00:42;100218.50;;;23.50
75428;BMP280;64008;55.612;37.698;2023-05-18T02:03:08;100212.50;;;23.31
75428;BMP280;64008;55.612;37.698;2023-05-18T02:05:33;100204.97;;;23.41
75428;BMP280;64008;55.612;37.698;2023-05-18T02:07:59;100218.19;;;23.29
75428;BMP280;64008;55.612;37.698;2023-05-18T02:10:25;100213.25;;;23.23
75428;BMP280;64008;55.612;37.698;2023-05-18T02:12:50;100214.38;;;23.30
75428;BMP280;64008;55.612;37.698;2023-05-18T02:15:17;100222.72;;;23.20
75428;BMP280;64008;55.612;37.698;2023-05-18T02:17:42;100227.13;;;23.16
75428;BMP280;64008;55.612;37.698;2023-05-18T02:20:08;100220.75;;;23.12
75428;BMP280;64008;55.612;37.698;2023-05-18T02:22:35;100220.44;;;23.13
75428;BMP280;64008;55.612;37.698;2023-05-18T02:25:01;100214.03;;;23.09
75428;BMP280;64008;55.612;37.698;2023-05-18T02:27:27;100214.19;;;23.04
75428;BMP280;64008;55.612;37.698;2023-05-18T02:29:53;100211.66;;;23.08
75428;BMP280;64008;55.612;37.698;2023-05-18T02:32:19;100221.22;;;23.14
75428;BMP280;64008;55.612;37.698;2023-05-18T02:34:44;100219.44;;;23.23
75428;BMP280;64008;55.612;37.698;2023-05-18T02:37:11;100215.22;;;23.17
75428;BMP280;64008;55.612;37.698;2023-05-18T02:39:38;100220.16;;;23.01
75428;BMP280;64008;55.612;37.698;2023-05-18T02:42:03;100223.59;;;22.93
75428;BMP280;64008;55.612;37.698;2023-05-18T02:44:29;100222.47;;;22.94
75428;BMP280;64008;55.612;37.698;2023-05-18T02:46:55;100223.19;;;22.86
75428;BMP280;64008;55.612;37.698;2023-05-18T02:49:20;100220.38;;;23.05
75428;BMP280;64008;55.612;37.698;2023-05-18T02:51:46;100218.06;;;22.98
75428;BMP280;64008;55.612;37.698;2023-05-18T02:54:11;100218.06;;;22.98
75428;BMP280;64008;55.612;37.698;2023-05-18T02:56:37;100226.06;;;23.03
75428;BMP280;64008;55.612;37.698;2023-05-18T02:59:02;100231.53;;;22.98
75428;BMP280;64008;55.612;37.698;2023-05-18T03:01:28;100229.13;;;23.10
75428;BMP280;64008;55.612;37.698;2023-05-18T03:03:57;100221.09;;;22.96
75428;BMP280;64008;55.612;37.698;2023-05-18T03:06:22;100219.03;;;23.16
75428;BMP280;64008;55.612;37.698;2023-05-18T03:08:51;100223.50;;;23.21
75428;BMP280;64008;55.612;37.698;2023-05-18T03:11:22;100228.53;;;23.13
75428;BMP280;64008;55.612;37.698;2023-05-18T03:13:48;100227.22;;;23.11
75428;BMP280;64008;55.612;37.698;2023-05-18T03:16:14;100235.44;;;23.20
75428;BMP280;64008;55.612;37.698;2023-05-18T03:18:40;100224.09;;;23.17
75428;BMP280;64008;55.612;37.698;2023-05-18T03:21:06;100226.47;;;23.55
75428;BMP280;64008;55.612;37.698;2023-05-18T03:23:32;100221.31;;;24.39
75428;BMP280;64008;55.612;37.698;2023-05-18T03:25:58;100221.78;;;24.32
75428;BMP280;64008;55.612;37.698;2023-05-18T03:28:27;100227.06;;;24.46
75428;BMP280;64008;55.612;37.698;2023-05-18T03:30:53;100223.22;;;24.29
75428;BMP280;64008;55.612;37.698;2023-05-18T03:33:19;100226.50;;;24.66
75428;BMP280;64008;55.612;37.698;2023-05-18T03:35:44;100220.94;;;24.63
75428;BMP280;64008;55.612;37.698;2023-05-18T03:38:10;100231.56;;;24.59
75428;BMP280;64008;55.612;37.698;2023-05-18T03:40:36;100237.09;;;24.54
75428;BMP280;64008;55.612;37.698;2023-05-18T03:43:01;100228.19;;;24.53
75428;BMP280;64008;55.612;37.698;2023-05-18T03:45:27;100224.69;;;24.44
75428;BMP280;64008;55.612;37.698;2023-05-18T03:47:52;100241.41;;;24.55
75428;BMP280;64008;55.612;37.698;2023-05-18T03:50:18;100235.84;;;24.20
75428;BMP280;64008;55.612;37.698;2023-05-18T03:52:43;100235.84;;;24.20
75428;BMP280;64008;55.612;37.698;2023-05-18T03:55:09;100242.38;;;24.59
75428;BMP280;64008;55.612;37.698;2023-05-18T03:57:36;100244.41;;;24.45
75428;BMP280;64008;55.612;37.698;2023-05-18T04:00:03;100243.31;;;24.54
75428;BMP280;64008;55.612;37.698;2023-05-18T04:02:31;100240.03;;;23.95
75428;BMP280;64008;55.612;37.698;2023-05-18T04:04:57;100249.06;;;23.59
75428;BMP280;64008;55.612;37.698;2023-05-18T04:07:23;100247.25;;;23.32
75428;BMP280;64008;55.612;37.698;2023-05-18T04:09:49;100244.59;;;23.18
75428;BMP280;64008;55.612;37.698;2023-05-18T04:12:16;100241.41;;;23.16
75428;BMP280;64008;55.612;37.698;2023-05-18T04:14:41;100250.88;;;23.14
75428;BMP280;64008;55.612;37.698;2023-05-18T04:17:07;100252.09;;;23.08
75428;BMP280;64008;55.612;37.698;2023-05-18T04:19:34;100244.22;;;22.98
75428;BMP280;64008;55.612;37.698;2023-05-18T04:22:00;100246.59;;;23.13
75428;BMP280;64008;55.612;37.698;2023-05-18T04:24:29;100245.19;;;23.15
75428;BMP280;64008;55.612;37.698;2023-05-18T04:26:57;100248.94;;;23.28
75428;BMP280;64008;55.612;37.698;2023-05-18T04:29:23;100242.94;;;23.31
75428;BMP280;64008;55.612;37.698;2023-05-18T04:31:49;100251.03;;;23.68
75428;BMP280;64008;55.612;37.698;2023-05-18T04:36:42;100243.25;;;24.37
75428;BMP280;64008;55.612;37.698;2023-05-18T04:39:09;100245.63;;;23.99
75428;BMP280;64008;55.612;37.698;2023-05-18T04:41:35;100250.63;;;23.83
75428;BMP280;64008;55.612;37.698;2023-05-18T04:44:01;100241.25;;;23.80
75428;BMP280;64008;55.612;37.698;2023-05-18T04:46:28;100241.00;;;22.73
75428;BMP280;64008;55.612;37.698;2023-05-18T04:48:54;100238.63;;;21.97
75428;BMP280;64008;55.612;37.698;2023-05-18T04:51:22;100237.25;;;22.14
75428;BMP280;64008;55.612;37.698;2023-05-18T04:53:48;100236.44;;;21.67
75428;BMP280;64008;55.612;37.698;2023-05-18T04:56:18;100234.16;;;21.74
75428;BMP280;64008;55.612;37.698;2023-05-18T04:58:45;100238.78;;;21.54
75428;BMP280;64008;55.612;37.698;2023-05-18T05:01:13;100240.38;;;21.88
75428;BMP280;64008;55.612;37.698;2023-05-18T05:03:42;100236.91;;;22.34
75428;BMP280;64008;55.612;37.698;2023-05-18T05:06:07;100234.19;;;22.48
75428;BMP280;64008;55.612;37.698;2023-05-18T05:08:33;100242.97;;;22.40
75428;BMP280;64008;55.612;37.698;2023-05-18T05:11:00;100244.59;;;22.08
75428;BMP280;64008;55.612;37.698;2023-05-18T05:13:26;100244.16;;;22.47
75428;BMP280;64008;55.612;37.698;2023-05-18T05:15:51;100233.78;;;22.55
75428;BMP280;64008;55.612;37.698;2023-05-18T05:18:17;100234.41;;;21.91
75428;BMP280;64008;55.612;37.698;2023-05-18T05:20:42;100243.44;;;22.14
75428;BMP280;64008;55.612;37.698;2023-05-18T05:23:08;100232.09;;;22.45
75428;BMP280;64008;55.612;37.698;2023-05-18T05:25:33;100235.88;;;22.30
75428;BMP280;64008;55.612;37.698;2023-05-18T05:27:59;100231.81;;;22.46
75428;BMP280;64008;55.612;37.698;2023-05-18T05:30:25;100236.69;;;22.31
75428;BMP280;64008;55.612;37.698;2023-05-18T05:32:50;100236.91;;;22.34
75428;BMP280;64008;55.612;37.698;2023-05-18T05:35:16;100235.50;;;22.50
75428;BMP280;64008;55.612;37.698;2023-05-18T05:37:41;100237.78;;;22.85
75428;BMP280;64008;55.612;37.698;2023-05-18T05:40:07;100238.84;;;22.84
75428;BMP280;64008;55.612;37.698;2023-05-18T05:42:33;100244.41;;;23.15
75428;BMP280;64008;55.612;37.698;2023-05-18T05:44:59;100239.09;;;23.46
75428;BMP280;64008;55.612;37.698;2023-05-18T05:47:25;100241.31;;;23.67
75428;BMP280;64008;55.612;37.698;2023-05-18T05:49:50;100235.56;;;23.82
75428;BMP280;64008;55.612;37.698;2023-05-18T05:52:16;100236.06;;;23.93
75428;BMP280;64008;55.612;37.698;2023-05-18T05:54:41;100237.06;;;23.97
75428;BMP280;64008;55.612;37.698;2023-05-18T05:57:07;100243.91;;;24.03
75428;BMP280;64008;55.612;37.698;2023-05-18T05:59:32;100241.38;;;24.06
75428;BMP280;64008;55.612;37.698;2023-05-18T06:01:58;100236.16;;;24.10
75428;BMP280;64008;55.612;37.698;2023-05-18T06:04:23;100222.34;;;24.12
75428;BMP280;64008;55.612;37.698;2023-05-18T06:06:49;100230.91;;;24.14
75428;BMP280;64008;55.612;37.698;2023-05-18T06:09:14;100229.53;;;24.16
75428;BMP280;64008;55.612;37.698;2023-05-18T06:11:40;100231.09;;;24.17
75428;BMP280;64008;55.612;37.698;2023-05-18T06:14:06;100227.28;;;24.18
75428;BMP280;64008;55.612;37.698;2023-05-18T06:16:31;100230.81;;;24.19
75428;BMP280;64008;55.612;37.698;2023-05-18T06:18:57;100224.75;;;24.22
75428;BMP280;64008;55.612;37.698;2023-05-18T06:21:22;100223.16;;;24.21
75428;BMP280;64008;55.612;37.698;2023-05-18T06:23:49;100230.06;;;24.27
75428;BMP280;64008;55.612;37.698;2023-05-18T06:26:15;100228.59;;;24.29
75428;BMP280;64008;55.612;37.698;2023-05-18T06:28:41;100222.41;;;24.29
75428;BMP280;64008;55.612;37.698;2023-05-18T06:31:07;100233.69;;;24.31
75428;BMP280;64008;55.612;37.698;2023-05-18T06:33:32;100228.16;;;24.36
75428;BMP280;64008;55.612;37.698;2023-05-18T06:35:58;100226.72;;;24.39
75428;BMP280;64008;55.612;37.698;2023-05-18T06:38:24;100225.34;;;24.41
75428;BMP280;64008;55.612;37.698;2023-05-18T06:40:49;100222.28;;;24.43
75428;BMP280;64008;55.612;37.698;2023-05-18T06:43:15;100224.97;;;24.43
75428;BMP280;64008;55.612;37.698;2023-05-18T06:45:40;100227.69;;;24.43
75428;BMP280;64008;55.612;37.698;2023-05-18T06:48:06;100229.28;;;24.44
75428;BMP280;64008;55.612;37.698;2023-05-18T06:50:31;100240.75;;;24.49
75428;BMP280;64008;55.612;37.698;2023-05-18T06:52:57;100226.13;;;24.50
75428;BMP280;64008;55.612;37.698;2023-05-18T06:55:22;100227.91;;;24.55
75428;BMP280;64008;55.612;37.698;2023-05-18T06:57:48;100230.59;;;24.55
75428;BMP280;64008;55.612;37.698;2023-05-18T07:00:14;100233.75;;;24.57
75428;BMP280;64008;55.612;37.698;2023-05-18T07:02:39;100224.88;;;24.57
75428;BMP280;64008;55.612;37.698;2023-05-18T07:05:07;100229.97;;;24.58
75428;BMP280;64008;55.612;37.698;2023-05-18T07:07:34;100227.13;;;24.63
75428;BMP280;64008;55.612;37.698;2023-05-18T07:10:01;100224.09;;;24.65
75428;BMP280;64008;55.612;37.698;2023-05-18T07:12:27;100221.09;;;24.66
75428;BMP280;64008;55.612;37.698;2023-05-18T07:14:53;100226.31;;;24.71
75428;BMP280;64008;55.612;37.698;2023-05-18T07:17:18;100222.19;;;24.74
75428;BMP280;64008;55.612;37.698;2023-05-18T07:19:44;100224.91;;;24.74
75428;BMP280;64008;55.612;37.698;2023-05-18T07:22:09;100231.59;;;24.76
75428;BMP280;64008;55.612;37.698;2023-05-18T07:24:35;100233.94;;;24.78
75428;BMP280;64008;55.612;37.698;2023-05-18T07:27:00;100226.66;;;24.79
75428;BMP280;64008;55.612;37.698;2023-05-18T07:29:27;100223.66;;;24.80
75428;BMP280;64008;55.612;37.698;2023-05-18T07:31:53;100223.47;;;24.85
75428;BMP280;64008;55.612;37.698;2023-05-18T07:34:19;100216.16;;;24.86
75428;BMP280;64008;55.612;37.698;2023-05-18T07:36:44;100222.25;;;24.91
75428;BMP280;64008;55.612;37.698;2023-05-18T07:39:10;100218.09;;;24.94
75428;BMP280;64008;55.612;37.698;2023-05-18T07:41:45;100213.50;;;24.94
75428;BMP280;64008;55.612;37.698;2023-05-18T07:44:13;100213.81;;;25.02
75428;BMP280;64008;55.612;37.698;2023-05-18T07:46:38;100218.09;;;25.03
75428;BMP280;64008;55.612;37.698;2023-05-18T07:49:04;100218.72;;;24.99
75428;BMP280;64008;55.612;37.698;2023-05-18T07:51:30;100220.00;;;25.02
75428;BMP280;64008;55.612;37.698;2023-05-18T07:53:55;100227.78;;;25.04
75428;BMP280;64008;55.612;37.698;2023-05-18T07:56:22;100218.56;;;25.05
75428;BMP280;64008;55.612;37.698;2023-05-18T07:58:48;100220.50;;;25.04
75428;BMP280;64008;55.612;37.698;2023-05-18T08:01:14;100222.56;;;25.07
75428;BMP280;64008;55.612;37.698;2023-05-18T08:03:39;100226.06;;;25.08
75428;BMP280;64008;55.612;37.698;2023-05-18T08:06:05;100225.88;;;25.13
75428;BMP280;64008;55.612;37.698;2023-05-18T08:08:31;100225.88;;;25.13
75428;BMP280;64008;55.612;37.698;2023-05-18T08:10:56;100223.50;;;25.11
75428;BMP280;64008;55.612;37.698;2023-05-18T08:13:22;100228.56;;;25.13
75428;BMP280;64008;55.612;37.698;2023-05-18T08:15:47;100224.47;;;25.15
75428;BMP280;64008;55.612;37.698;2023-05-18T08:18:13;100223.31;;;25.16
75428;BMP280;64008;55.612;37.698;2023-05-18T08:20:38;100217.16;;;25.16
75428;BMP280;64008;55.612;37.698;2023-05-18T08:23:04;100222.22;;;25.17
75428;BMP280;64008;55.612;37.698;2023-05-18T08:25:29;100221.44;;;25.17
75428;BMP280;64008;55.612;37.698;2023-05-18T08:27:55;100211.88;;;25.19
75428;BMP280;64008;55.612;37.698;2023-05-18T08:30:20;100214.25;;;25.21
75428;BMP280;64008;55.612;37.698;2023-05-18T08:32:47;100216.66;;;25.22
75428;BMP280;64008;55.612;37.698;2023-05-18T08:35:12;100207.28;;;25.20
75428;BMP280;64008;55.612;37.698;2023-05-18T08:37:38;100217.78;;;25.21
75428;BMP280;64008;55.612;37.698;2023-05-18T08:40:07;100209.34;;;25.23
75428;BMP280;64008;55.612;37.698;2023-05-18T08:45:23;100212.81;;;25.23
75428;BMP280;64008;55.612;37.698;2023-05-18T08:47:54;100214.75;;;25.23
75428;BMP280;64008;55.612;37.698;2023-05-18T08:50:21;100217.94;;;25.25
75428;BMP280;64008;55.612;37.698;2023-05-18T08:52:51;100214.91;;;25.27
75428;BMP280;64008;55.612;37.698;2023-05-18T08:55:19;100215.22;;;25.25
75428;BMP280;64008;55.612;37.698;2023-05-18T08:57:51;100214.09;;;25.26
75428;BMP280;64008;55.612;37.698;2023-05-18T09:00:21;100215.69;;;25.27
75428;BMP280;64008;55.612;37.698;2023-05-18T09:02:48;100205.34;;;25.29
75428;BMP280;64008;55.612;37.698;2023-05-18T09:05:14;100199.94;;;25.29
75428;BMP280;64008;55.612;37.698;2023-05-18T09:07:42;100197.22;;;25.29
75428;BMP280;64008;55.612;37.698;2023-05-18T09:10:11;100201.84;;;25.29
75428;BMP280;64008;55.612;37.698;2023-05-18T09:12:41;100189.41;;;25.28
75428;BMP280;64008;55.612;37.698;2023-05-18T09:15:11;100196.75;;;25.27
75428;BMP280;64008;55.612;37.698;2023-05-18T09:17:37;100185.94;;;25.27
75428;BMP280;64008;55.612;37.698;2023-05-18T09:20:03;100202.94;;;25.28
75428;BMP280;64008;55.612;37.698;2023-05-18T09:22:32;100191.81;;;25.29
75428;BMP280;64008;55.612;37.698;2023-05-18T09:25:03;100179.88;;;25.30
75428;BMP280;64008;55.612;37.698;2023-05-18T09:27:30;100184.53;;;25.30
75428;BMP280;64008;55.612;37.698;2023-05-18T09:29:57;100188.78;;;25.31
75428;BMP280;64008;55.612;37.698;2023-05-18T09:32:23;100181.47;;;25.31
75428;BMP280;64008;55.612;37.698;2023-05-18T09:34:49;100179.56;;;25.32
75428;BMP280;64008;55.612;37.698;2023-05-18T09:37:16;100180.81;;;25.34
75428;BMP280;64008;55.612;37.698;2023-05-18T09:39:42;100176.22;;;25.35
75428;BMP280;64008;55.612;37.698;2023-05-18T09:42:08;100179.72;;;25.35
75428;BMP280;64008;55.612;37.698;2023-05-18T09:44:34;100184.81;;;25.37
75428;BMP280;64008;55.612;37.698;2023-05-18T09:47:00;100182.88;;;25.37
75428;BMP280;64008;55.612;37.698;2023-05-18T09:49:28;100179.84;;;25.39
75428;BMP280;64008;55.612;37.698;2023-05-18T09:51:54;100177.16;;;25.39
75428;BMP280;64008;55.612;37.698;2023-05-18T09:54:21;100172.72;;;25.43
75428;BMP280;64008;55.612;37.698;2023-05-18T09:56:48;100178.91;;;25.43
75428;BMP280;64008;55.612;37.698;2023-05-18T09:59:14;100178.56;;;25.45
75428;BMP280;64008;55.612;37.698;2023-05-18T10:01:59;100175.56;;;25.47
75428;BMP280;64008;55.612;37.698;2023-05-18T10:04:36;100169.00;;;25.48
75428;BMP280;64008;55.612;37.698;2023-05-18T10:07:02;100171.41;;;25.49
75428;BMP280;64008;55.612;37.698;2023-05-18T10:09:32;100166.47;;;25.51
75428;BMP280;64008;55.612;37.698;2023-05-18T10:11:57;100170.78;;;25.52
75428;BMP280;64008;55.612;37.698;2023-05-18T10:14:24;100162.66;;;25.52
75428;BMP280;64008;55.612;37.698;2023-05-18T10:16:57;100158.47;;;25.55
75428;BMP280;64008;55.612;37.698;2023-05-18T10:19:23;100146.56;;;25.56
75428;BMP280;64008;55.612;37.698;2023-05-18T10:21:49;100163.25;;;25.58
75428;BMP280;64008;55.612;37.698;2023-05-18T10:24:16;100155.59;;;25.60
75428;BMP280;64008;55.612;37.698;2023-05-18T10:26:44;100152.56;;;25.61
75428;BMP280;64008;55.612;37.698;2023-05-18T10:29:11;100145.75;;;25.64
75428;BMP280;64008;55.612;37.698;2023-05-18T10:31:37;100160.53;;;25.66
75428;BMP280;64008;55.612;37.698;2023-05-18T10:34:03;100159.06;;;25.69
75428;BMP280;64008;55.612;37.698;2023-05-18T10:36:32;100156.84;;;25.71
75428;BMP280;64008;55.612;37.698;2023-05-18T10:39:01;100157.78;;;25.75
75428;BMP280;64008;55.612;37.698;2023-05-18T10:41:29;100153.97;;;25.76
75428;BMP280;64008;55.612;37.698;2023-05-18T10:43:57;100146.31;;;25.78
75428;BMP280;64008;55.612;37.698;2023-05-18T10:46:28;100145.97;;;25.80
75428;BMP280;64008;55.612;37.698;2023-05-18T10:48:56;100142.97;;;25.81
75428;BMP280;64008;55.612;37.698;2023-05-18T10:51:25;100149.13;;;25.82
75428;BMP280;64008;55.612;37.698;2023-05-18T10:53:51;100145.03;;;25.84
75428;BMP280;64008;55.612;37.698;2023-05-18T10:56:17;100131.63;;;25.88
75428;BMP280;64008;55.612;37.698;2023-05-18T10:58:43;100135.91;;;25.89
75428;BMP280;64008;55.612;37.698;2023-05-18T11:01:10;100132.19;;;25.94
75428;BMP280;64008;55.612;37.698;2023-05-18T11:03:37;100126.78;;;25.94
75428;BMP280;64008;55.612;37.698;2023-05-18T11:06:05;100131.88;;;25.95
75428;BMP280;64008;55.612;37.698;2023-05-18T11:08:32;100126.47;;;25.95
75428;BMP280;64008;55.612;37.698;2023-05-18T11:11:02;100135.53;;;25.99
75428;BMP280;64008;55.612;37.698;2023-05-18T11:13:32;100123.25;;;26.02
75428;BMP280;64008;55.612;37.698;2023-05-18T11:18:50;100120.19;;;26.03
75428;BMP280;64008;55.612;37.698;2023-05-18T11:24:30;100123.72;;;26.04
75428;BMP280;64008;55.612;37.698;2023-05-18T11:31:55;100103.28;;;26.06
75428;BMP280;64008;55.612;37.698;2023-05-18T11:37:04;100104.09;;;26.07
75428;BMP280;64008;55.612;37.698;2023-05-18T11:39:31;100099.91;;;26.09
75428;BMP280;64008;55.612;37.698;2023-05-18T11:44:28;100108.19;;;26.13
75428;BMP280;64008;55.612;37.698;2023-05-18T11:47:02;100105.16;;;26.14
75428;BMP280;64008;55.612;37.698;2023-05-18T11:49:30;100106.41;;;26.17
75428;BMP280;64008;55.612;37.698;2023-05-18T11:54:25;100097.97;;;26.19
75428;BMP280;64008;55.612;37.698;2023-05-18T11:56:52;100098.72;;;26.19
75428;BMP280;64008;55.612;37.698;2023-05-18T11:59:32;100101.13;;;26.21
75428;BMP280;64008;55.612;37.698;2023-05-18T12:02:00;100099.25;;;26.21
75428;BMP280;64008;55.612;37.698;2023-05-18T12:04:26;100102.38;;;26.23
75428;BMP280;64008;55.612;37.698;2023-05-18T12:06:53;100096.97;;;26.23
75428;BMP280;64008;55.612;37.698;2023-05-18T12:09:20;100092.22;;;26.20
75428;BMP280;64008;55.612;37.698;2023-05-18T12:11:46;100098.06;;;26.22
75428;BMP280;64008;55.612;37.698;2023-05-18T12:14:12;100095.88;;;26.24
75428;BMP280;64008;55.612;37.698;2023-05-18T12:16:41;100085.03;;;26.24
75428;BMP280;64008;55.612;37.698;2023-05-18T12:19:07;100083.09;;;26.25
75428;BMP280;64008;55.612;37.698;2023-05-18T12:21:36;100088.97;;;26.27
75428;BMP280;64008;55.612;37.698;2023-05-18T12:24:02;100077.03;;;26.28
75428;BMP280;64008;55.612;37.698;2023-05-18T12:26:29;100076.69;;;26.29
75428;BMP280;64008;55.612;37.698;2023-05-18T12:28:58;100083.03;;;26.33
75428;BMP280;64008;55.612;37.698;2023-05-18T12:31:24;100085.41;;;26.35
75428;BMP280;64008;55.612;37.698;2023-05-18T12:33:52;100080.81;;;26.35
75428;BMP280;64008;55.612;37.698;2023-05-18T12:36:18;100078.19;;;26.39
75428;BMP280;64008;55.612;37.698;2023-05-18T12:38:50;100076.28;;;26.40
75428;BMP280;64008;55.612;37.698;2023-05-18T12:41:26;100071.66;;;26.40
75428;BMP280;64008;55.612;37.698;2023-05-18T12:43:52;100078.31;;;26.43
75428;BMP280;64008;55.612;37.698;2023-05-18T12:46:22;100084.22;;;26.45
75428;BMP280;64008;55.612;37.698;2023-05-18T12:48:58;100081.97;;;26.47
75428;BMP280;64008;55.612;37.698;2023-05-18T12:51:33;100075.84;;;26.50
75428;BMP280;64008;55.612;37.698;2023-05-18T12:54:01;100070.94;;;26.52
75428;BMP280;64008;55.612;37.698;2023-05-18T12:56:27;100080.31;;;26.54
75428;BMP280;64008;55.612;37.698;2023-05-18T12:58:58;100069.94;;;26.56
75428;BMP280;64008;55.612;37.698;2023-05-18T13:01:24;100069.59;;;26.58
75428;BMP280;64008;55.612;37.698;2023-05-18T13:03:57;100071.94;;;26.59
75428;BMP280;64008;55.612;37.698;2023-05-18T13:06:23;100067.34;;;26.60
75428;BMP280;64008;55.612;37.698;2023-05-18T13:08:53;100072.09;;;26.63
75428;BMP280;64008;55.612;37.698;2023-05-18T13:11:24;100059.00;;;26.65
75428;BMP280;64008;55.612;37.698;2023-05-18T13:14:03;100056.72;;;26.67
75428;BMP280;64008;55.612;37.698;2023-05-18T13:16:30;100066.47;;;26.68
75428;BMP280;64008;55.612;37.698;2023-05-18T13:18:57;100060.69;;;26.70
75428;BMP280;64008;55.612;37.698;2023-05-18T13:21:24;100063.09;;;26.71
75428;BMP280;64008;55.612;37.698;2023-05-18T13:23:49;100065.47;;;26.73
75428;BMP280;64008;55.612;37.698;2023-05-18T13:26:15;100062.44;;;26.74
75428;BMP280;64008;55.612;37.698;2023-05-18T13:28:45;100055.53;;;26.77
75428;BMP280;64008;55.612;37.698;2023-05-18T13:31:10;100064.19;;;26.70
75428;BMP280;64008;55.612;37.698;2023-05-18T13:33:36;100062.47;;;26.66
75428;BMP280;64008;55.612;37.698;2023-05-18T13:36:01;100054.25;;;26.62
75428;BMP280;64008;55.612;37.698;2023-05-18T13:38:27;100063.63;;;26.65
75428;BMP280;64008;55.612;37.698;2023-05-18T13:40:53;100067.03;;;26.62
75428;BMP280;64008;55.612;37.698;2023-05-18T13:43:18;100071.94;;;26.59
75428;BMP280;64008;55.612;37.698;2023-05-18T13:45:44;100069.38;;;26.63
75428;BMP280;64008;55.612;37.698;2023-05-18T13:48:09;100071.09;;;26.68
75428;BMP280;64008;55.612;37.698;2023-05-18T13:50:35;100068.84;;;26.70
75428;BMP280;64008;55.612;37.698;2023-05-18T13:53:00;100061.94;;;26.72
75428;BMP280;64008;55.612;37.698;2023-05-18T13:55:26;100063.97;;;26.75
75428;BMP280;64008;55.612;37.698;2023-05-18T13:57:52;100070.31;;;26.79
75428;BMP280;64008;55.612;37.698;2023-05-18T14:00:17;100051.81;;;26.81
75428;BMP280;64008;55.612;37.698;2023-05-18T14:02:45;100053.38;;;26.82
75428;BMP280;64008;55.612;37.698;2023-05-18T14:05:12;100040.31;;;26.84
75428;BMP280;64008;55.612;37.698;2023-05-18T14:07:39;100054.28;;;26.87
75428;BMP280;64008;55.612;37.698;2023-05-18T14:10:06;100059.41;;;26.88
75428;BMP280;64008;55.612;37.698;2023-05-18T14:12:32;100051.72;;;26.90
75428;BMP280;64008;55.612;37.698;2023-05-18T14:14:58;100052.50;;;26.91
75428;BMP280;64008;55.612;37.698;2023-05-18T14:17:24;100059.16;;;26.93